Time;durP1;ratioP1;P1;durP2;ratioP2;P2;SDS_P1;SDS_P2;PMS_P1;PMS_P2;Temp;Humidity;BMP_temperature;BMP_pressure;BME280_temperature;BME280_humidity;BME280_pressure;Samples;Min_cycle;Max_cycle;Signal;HPM_P1;HPM_P2
2023/03/02 00:01:34;;;;;;;42.22;19.42;;;3.50;99.90;;;;;;5029324;28;20056;-65
2023/03/02 00:04:02;;;;;;;45.55;20.48;;;3.50;99.90;;;;;;5027992;28;20095;-65
2023/03/02 00:06:29;;;;;;;40.30;20.02;;;3.50;99.90;;;;;;5026857;28;20440;-65
2023/03/02 00:08:59;;;;;;;44.97;19.98;;;3.40;99.90;;;;;;5051173;28;20029;-65
2023/03/02 00:11:29;;;;;;;41.60;19.52;;;3.40;99.90;;;;;;5065034;28;20469;-66
2023/03/02 00:13:55;;;;;;;38.00;18.73;;;3.40;99.90;;;;;;5068526;28;20123;-66
2023/03/02 00:16:20;;;;;;;40.97;20.08;;;3.50;99.90;;;;;;5069074;28;20140;-66
2023/03/02 00:18:46;;;;;;;44.63;20.35;;;3.50;99.90;;;;;;5068489;28;20044;-66
2023/03/02 00:21:11;;;;;;;42.45;19.27;;;3.50;99.90;;;;;;5069199;28;20123;-66
2023/03/02 00:23:37;;;;;;;48.60;19.45;;;3.50;99.90;;;;;;5068960;28;20047;-66
2023/03/02 00:26:04;;;;;;;44.38;19.70;;;3.50;99.90;;;;;;5067551;28;20103;-66
2023/03/02 00:28:30;;;;;;;42.58;19.80;;;3.50;99.90;;;;;;5069246;28;20404;-65
2023/03/02 00:30:56;;;;;;;44.80;20.63;;;3.50;99.90;;;;;;5068299;28;20053;-66
2023/03/02 00:33:21;;;;;;;45.40;21.23;;;3.50;99.90;;;;;;5069376;28;20048;-65
2023/03/02 00:35:47;;;;;;;45.20;21.52;;;3.50;99.90;;;;;;5068464;28;20055;-66
2023/03/02 00:38:12;;;;;;;49.25;21.25;;;3.50;99.90;;;;;;5069175;28;20036;-66
2023/03/02 00:40:44;;;;;;;49.30;21.27;;;3.50;99.90;;;;;;5068894;28;20036;-65
2023/03/02 00:43:09;;;;;;;46.95;21.70;;;3.50;99.90;;;;;;5069227;28;20051;-66
2023/03/02 00:45:35;;;;;;;47.35;20.63;;;3.50;99.90;;;;;;5068446;28;20032;-66
2023/03/02 00:48:00;;;;;;;48.90;23.00;;;3.50;99.90;;;;;;5069073;28;20037;-65
2023/03/02 00:50:26;;;;;;;48.30;20.10;;;3.50;99.90;;;;;;5069156;28;20044;-66
2023/03/02 00:52:51;;;;;;;53.13;21.75;;;3.50;99.90;;;;;;5068264;28;20505;-66
2023/03/02 00:55:17;;;;;;;54.75;22.88;;;3.50;99.90;;;;;;5068122;28;20040;-65
2023/03/02 00:57:43;;;;;;;53.17;21.30;;;3.40;99.90;;;;;;5068758;28;20170;-66
2023/03/02 01:00:09;;;;;;;53.25;22.60;;;3.30;99.90;;;;;;5068913;28;20179;-66
2023/03/02 01:02:37;;;;;;;52.60;22.92;;;3.30;99.90;;;;;;5068910;28;20040;-66
2023/03/02 01:05:04;;;;;;;54.55;23.55;;;3.40;99.90;;;;;;5067873;28;20392;-66
2023/03/02 01:07:29;;;;;;;55.85;23.65;;;3.30;99.90;;;;;;5067792;28;20048;-66
2023/03/02 01:09:55;;;;;;;54.55;23.45;;;3.30;99.90;;;;;;5066918;28;20047;-66
2023/03/02 01:12:21;;;;;;;56.47;24.23;;;3.20;99.90;;;;;;5066856;28;20135;-66
2023/03/02 01:14:47;;;;;;;56.53;23.67;;;3.30;99.90;;;;;;5066576;28;20101;-65
2023/03/02 01:17:14;;;;;;;55.67;24.90;;;3.20;99.90;;;;;;5068818;28;20068;-65
2023/03/02 01:19:41;;;;;;;52.20;23.67;;;3.20;99.90;;;;;;5068545;28;20033;-65
2023/03/02 01:22:07;;;;;;;52.65;22.85;;;3.20;99.90;;;;;;5068647;28;20273;-65
2023/03/02 01:24:32;;;;;;;50.97;22.30;;;3.20;99.90;;;;;;5067527;28;20067;-65
2023/03/02 01:26:58;;;;;;;54.97;22.75;;;3.10;99.90;;;;;;5068748;28;20080;-66
2023/03/02 01:29:24;;;;;;;47.35;22.88;;;3.20;99.90;;;;;;5068773;28;20120;-66
2023/03/02 01:31:50;;;;;;;55.70;22.65;;;3.10;99.90;;;;;;5068670;28;20523;-65
2023/03/02 01:34:15;;;;;;;50.00;21.85;;;3.20;99.90;;;;;;5067935;28;20043;-65
2023/03/02 01:36:44;;;;;;;46.33;21.17;;;3.10;99.90;;;;;;5070976;28;20036;-66
2023/03/02 01:39:14;;;;;;;53.58;22.95;;;3.10;99.90;;;;;;5072149;28;20115;-66
2023/03/02 01:41:43;;;;;;;56.17;24.08;;;3.10;99.90;;;;;;5072186;28;20040;-66
2023/03/02 01:44:47;;;;;;;50.05;21.38;;;3.00;99.90;;;;;;5071385;28;20515;-65
2023/03/02 01:47:37;;;;;;;45.50;20.90;;;2.90;99.90;;;;;;5071584;28;20037;-65
2023/03/02 01:50:25;;;;;;;50.90;21.48;;;3.00;99.90;;;;;;5072278;28;20033;-65
2023/03/02 01:52:52;;;;;;;48.25;20.85;;;3.00;99.90;;;;;;5072088;28;20032;-65
2023/03/02 01:55:26;;;;;;;50.20;22.85;;;3.00;99.90;;;;;;5070969;28;20531;-65
2023/03/02 01:57:55;;;;;;;50.50;22.80;;;3.00;99.90;;;;;;5071671;28;20083;-66
2023/03/02 02:00:26;;;;;;;51.17;21.10;;;3.00;99.90;;;;;;5071931;28;20405;-65
2023/03/02 02:02:53;;;;;;;51.95;21.75;;;3.00;99.90;;;;;;5071789;28;20119;-66
2023/03/02 02:05:24;;;;;;;46.85;22.40;;;3.00;99.90;;;;;;5070884;28;20487;-66
2023/03/02 02:07:50;;;;;;;51.60;21.42;;;3.10;99.90;;;;;;5071259;28;20048;-65
2023/03/02 02:10:15;;;;;;;49.85;20.88;;;3.10;99.90;;;;;;5070820;28;20044;-65
2023/03/02 02:12:41;;;;;;;52.70;21.55;;;3.00;99.90;;;;;;5071408;28;20041;-65
2023/03/02 02:15:07;;;;;;;51.35;21.50;;;3.00;99.90;;;;;;5070744;28;20067;-66
2023/03/02 02:17:33;;;;;;;45.80;20.00;;;2.90;99.90;;;;;;5071741;28;20075;-66
2023/03/02 02:20:23;;;;;;;49.70;21.92;;;2.90;99.90;;;;;;5071017;28;20048;-65
2023/03/02 02:23:03;;;;;;;44.70;20.55;;;2.90;99.90;;;;;;5071264;28;20036;-65
2023/03/02 02:25:57;;;;;;;44.92;19.65;;;2.90;99.90;;;;;;5070653;28;20409;-66
2023/03/02 02:28:39;;;;;;;43.72;19.00;;;2.90;99.90;;;;;;5071638;28;20037;-66
2023/03/02 02:31:15;;;;;;;43.67;20.35;;;2.90;99.90;;;;;;5071122;28;20048;-66
2023/03/02 02:33:44;;;;;;;46.13;21.15;;;2.90;99.90;;;;;;5071323;28;20397;-66
2023/03/02 02:36:17;;;;;;;53.05;22.15;;;2.90;99.90;;;;;;5070313;28;20060;-66
2023/03/02 02:38:46;;;;;;;41.38;19.15;;;2.90;99.90;;;;;;5071057;28;20547;-65
2023/03/02 02:41:18;;;;;;;42.75;18.10;;;2.80;99.90;;;;;;5071003;28;20487;-66
2023/03/02 02:43:44;;;;;;;45.55;19.25;;;2.80;99.90;;;;;;5068904;28;20040;-65
2023/03/02 02:46:11;;;;;;;41.40;17.38;;;2.70;99.90;;;;;;5069834;28;20587;-65
2023/03/02 02:48:37;;;;;;;47.00;19.42;;;2.70;99.90;;;;;;5070065;28;20036;-66
2023/03/02 02:51:06;;;;;;;36.05;16.10;;;2.70;99.90;;;;;;5071030;28;20045;-65
2023/03/02 02:53:36;;;;;;;38.65;17.73;;;2.70;99.90;;;;;;5071075;28;20041;-65
2023/03/02 02:56:03;;;;;;;44.35;18.92;;;2.70;99.90;;;;;;5069161;28;20127;-66
2023/03/02 02:58:48;;;;;;;42.53;19.23;;;2.60;99.90;;;;;;5069903;28;20051;-65
2023/03/02 03:01:16;;;;;;;44.60;18.23;;;2.60;99.90;;;;;;5070044;28;20036;-66
2023/03/02 03:03:52;;;;;;;41.30;17.90;;;2.70;99.90;;;;;;5068469;28;20040;-66
2023/03/02 03:06:24;;;;;;;44.30;19.75;;;2.60;99.90;;;;;;5069788;28;20600;-65
2023/03/02 03:08:51;;;;;;;38.58;16.58;;;2.60;99.90;;;;;;5070326;28;20044;-66
2023/03/02 03:11:23;;;;;;;37.55;18.50;;;2.60;99.90;;;;;;5070325;28;20127;-65
2023/03/02 03:13:55;;;;;;;41.13;17.80;;;2.60;99.90;;;;;;5069651;28;20048;-65
2023/03/02 03:16:22;;;;;;;37.83;17.05;;;2.60;99.90;;;;;;5070389;28;20301;-66
2023/03/02 03:18:50;;;;;;;37.85;17.17;;;2.50;99.90;;;;;;5070027;28;20051;-65
2023/03/02 03:21:17;;;;;;;40.30;18.17;;;2.60;99.90;;;;;;5069432;28;20036;-66
2023/03/02 03:23:43;;;;;;;45.13;19.75;;;2.60;99.90;;;;;;5069471;28;20033;-65
2023/03/02 03:26:09;;;;;;;42.00;17.70;;;2.60;99.90;;;;;;5069496;28;20427;-66
2023/03/02 03:28:34;;;;;;;46.85;18.98;;;2.60;99.90;;;;;;5070079;28;20036;-65
2023/03/02 03:31:00;;;;;;;41.60;18.30;;;2.60;99.90;;;;;;5070107;28;20049;-65
2023/03/02 03:33:26;;;;;;;40.03;18.50;;;2.50;99.90;;;;;;5069404;28;20065;-66
2023/03/02 03:35:52;;;;;;;43.33;18.17;;;2.50;99.90;;;;;;5068138;28;20045;-66
2023/03/02 03:38:17;;;;;;;43.22;18.50;;;2.50;99.90;;;;;;5069921;28;20044;-65
2023/03/02 03:40:43;;;;;;;40.78;18.38;;;2.60;99.90;;;;;;5070053;28;20509;-65
2023/03/02 03:43:09;;;;;;;41.58;18.60;;;2.50;99.90;;;;;;5069862;28;20115;-66
2023/03/02 03:45:34;;;;;;;42.90;17.70;;;2.50;99.90;;;;;;5069056;28;20036;-65
2023/03/02 03:48:00;;;;;;;39.63;17.35;;;2.60;99.90;;;;;;5069697;28;20043;-65
2023/03/02 03:50:25;;;;;;;41.92;19.17;;;2.50;99.90;;;;;;5069772;28;20048;-65
2023/03/02 03:52:51;;;;;;;42.22;18.67;;;2.50;99.90;;;;;;5069924;28;20040;-65
2023/03/02 03:55:18;;;;;;;45.78;17.85;;;2.50;99.90;;;;;;5068430;28;20505;-65
2023/03/02 03:57:43;;;;;;;43.08;18.20;;;2.50;99.90;;;;;;5069202;28;20049;-65
2023/03/02 04:00:13;;;;;;;38.60;17.73;;;2.50;99.90;;;;;;5069408;28;20045;-65
2023/03/02 04:02:40;;;;;;;44.55;18.17;;;2.50;99.90;;;;;;5069766;28;20044;-66
2023/03/02 04:05:07;;;;;;;49.70;18.83;;;2.50;99.90;;;;;;5068469;28;20656;-65
2023/03/02 04:07:34;;;;;;;48.42;19.40;;;2.50;99.90;;;;;;5069655;28;20396;-66
2023/03/02 04:10:03;;;;;;;41.13;17.52;;;2.50;99.90;;;;;;5068779;28;20044;-65
2023/03/02 04:12:33;;;;;;;49.58;19.80;;;2.40;99.90;;;;;;5069035;28;20044;-65
2023/03/02 04:14:59;;;;;;;46.35;18.65;;;2.50;99.90;;;;;;5068664;28;20098;-65
2023/03/02 04:17:25;;;;;;;46.72;19.10;;;2.50;99.90;;;;;;5069575;28;20044;-65
2023/03/02 04:19:51;;;;;;;42.85;17.42;;;2.40;99.90;;;;;;5069413;28;20040;-66
2023/03/02 04:22:18;;;;;;;40.83;18.10;;;2.40;99.90;;;;;;5069344;28;20401;-65
2023/03/02 04:24:45;;;;;;;42.50;18.05;;;2.40;99.90;;;;;;5068722;28;20044;-66
2023/03/02 04:27:11;;;;;;;47.22;18.83;;;2.40;99.90;;;;;;5069267;28;20734;-65
2023/03/02 04:29:37;;;;;;;44.33;17.92;;;2.30;99.90;;;;;;5069068;28;20123;-65
2023/03/02 04:32:03;;;;;;;49.45;20.25;;;2.40;99.90;;;;;;5068969;28;20128;-65
2023/03/02 04:34:29;;;;;;;50.50;19.73;;;2.40;99.90;;;;;;5068454;28;20045;-65
2023/03/02 04:36:54;;;;;;;47.72;19.58;;;2.40;99.90;;;;;;5067040;28;20048;-65
2023/03/02 04:39:20;;;;;;;52.85;19.98;;;2.40;99.90;;;;;;5067523;28;20090;-65
2023/03/02 04:41:46;;;;;;;47.63;17.83;;;2.40;99.90;;;;;;5068357;28;20153;-66
2023/03/02 04:44:13;;;;;;;45.72;19.30;;;2.30;99.90;;;;;;5068126;28;20151;-66
2023/03/02 04:46:40;;;;;;;45.35;18.05;;;2.40;99.90;;;;;;5068748;28;20396;-66
2023/03/02 04:49:06;;;;;;;47.83;19.67;;;2.30;99.90;;;;;;5068395;28;20089;-66
2023/03/02 04:51:39;;;;;;;42.72;17.63;;;2.20;99.90;;;;;;5069044;28;20040;-66
2023/03/02 04:54:14;;;;;;;45.97;17.25;;;2.20;99.90;;;;;;5068213;28;20153;-66
2023/03/02 04:56:40;;;;;;;46.25;18.98;;;2.20;99.90;;;;;;5068772;28;20048;-65
2023/03/02 04:59:05;;;;;;;46.72;19.00;;;2.20;99.90;;;;;;5068677;28;20041;-65
2023/03/02 05:01:31;;;;;;;47.45;19.20;;;2.20;99.90;;;;;;5056230;28;20041;-65
2023/03/02 05:03:57;;;;;;;53.85;19.77;;;2.30;99.90;;;;;;5048048;28;20095;-65
2023/03/02 05:06:24;;;;;;;60.63;20.83;;;2.30;99.90;;;;;;5049067;28;20439;-66
2023/03/02 05:08:50;;;;;;;59.15;20.15;;;2.30;99.90;;;;;;5048896;28;20524;-65
2023/03/02 05:11:23;;;;;;;60.33;21.17;;;2.40;99.90;;;;;;5049799;28;20087;-66
2023/03/02 05:13:57;;;;;;;55.60;19.23;;;2.30;99.90;;;;;;5051918;28;20088;-65
2023/03/02 05:16:24;;;;;;;69.82;20.63;;;2.20;99.90;;;;;;5052030;28;20048;-66
2023/03/02 05:18:49;;;;;;;66.05;23.23;;;2.20;99.90;;;;;;5052599;28;20067;-66
2023/03/02 05:21:16;;;;;;;54.60;20.50;;;2.30;99.90;;;;;;5051839;28;20405;-66
2023/03/02 05:23:42;;;;;;;59.25;20.75;;;2.30;99.90;;;;;;5052286;28;20041;-65
2023/03/02 05:26:08;;;;;;;63.22;21.17;;;2.20;99.90;;;;;;5050891;28;20445;-66
2023/03/02 05:28:34;;;;;;;71.50;21.13;;;2.20;99.90;;;;;;5052330;28;20179;-66
2023/03/02 05:31:01;;;;;;;61.65;21.23;;;2.20;99.90;;;;;;5052262;28;20032;-66
2023/03/02 05:33:27;;;;;;;67.22;21.42;;;2.20;99.90;;;;;;5050018;28;20045;-65
2023/03/02 05:35:53;;;;;;;55.58;21.25;;;2.20;99.90;;;;;;5050883;28;20041;-66
2023/03/02 05:38:19;;;;;;;73.85;22.58;;;2.20;99.90;;;;;;5052537;28;20124;-66
2023/03/02 05:40:45;;;;;;;56.72;21.20;;;2.20;99.90;;;;;;5052205;28;20060;-65
2023/03/02 05:43:15;;;;;;;66.93;20.70;;;2.20;99.90;;;;;;5052052;28;20037;-66
2023/03/02 05:45:41;;;;;;;71.18;22.25;;;2.20;99.90;;;;;;5051672;28;20671;-66
2023/03/02 05:48:07;;;;;;;61.38;22.02;;;2.20;99.90;;;;;;5052221;28;20040;-66
2023/03/02 05:50:33;;;;;;;55.70;22.45;;;2.20;99.90;;;;;;5052490;28;20037;-65
2023/03/02 05:53:01;;;;;;;58.45;22.25;;;2.20;99.90;;;;;;5050860;28;20040;-66
2023/03/02 05:55:27;;;;;;;65.57;23.85;;;2.20;99.90;;;;;;5050939;28;20049;-66
2023/03/02 05:57:53;;;;;;;72.65;22.88;;;2.10;99.90;;;;;;5051529;28;20039;-65
2023/03/02 06:00:19;;;;;;;66.95;21.02;;;2.10;99.90;;;;;;5052196;28;20044;-65
2023/03/02 06:02:45;;;;;;;57.90;21.83;;;2.10;99.90;;;;;;5051853;28;20041;-65
2023/03/02 06:05:13;;;;;;;59.33;21.17;;;2.10;99.90;;;;;;5051118;28;20128;-66
2023/03/02 06:07:39;;;;;;;65.32;20.98;;;2.10;99.90;;;;;;5051227;28;20072;-66
2023/03/02 06:10:06;;;;;;;64.80;23.13;;;2.10;99.90;;;;;;5050845;28;20075;-65
2023/03/02 06:12:32;;;;;;;67.80;23.25;;;2.10;99.90;;;;;;5051611;28;20159;-65
2023/03/02 06:14:58;;;;;;;66.32;23.65;;;2.10;99.90;;;;;;5050499;28;20045;-66
2023/03/02 06:17:27;;;;;;;67.60;22.17;;;2.10;99.90;;;;;;5049853;28;20049;-66
2023/03/02 06:19:52;;;;;;;57.45;21.27;;;2.10;99.90;;;;;;5051169;28;20071;-65
2023/03/02 06:22:18;;;;;;;70.45;23.20;;;2.10;99.90;;;;;;5050212;28;20041;-66
2023/03/02 06:24:43;;;;;;;68.25;23.05;;;2.10;99.90;;;;;;5050306;28;20569;-66
2023/03/02 06:27:10;;;;;;;74.20;23.70;;;2.00;99.90;;;;;;5047200;28;20112;-65
2023/03/02 06:29:36;;;;;;;59.55;20.35;;;2.00;99.90;;;;;;5041021;28;20045;-65
2023/03/02 06:32:02;;;;;;;65.28;23.02;;;1.90;99.90;;;;;;5040473;28;20045;-65
2023/03/02 06:34:28;;;;;;;64.68;21.80;;;2.00;99.90;;;;;;5041043;28;20037;-66
2023/03/02 06:36:54;;;;;;;60.53;20.15;;;1.90;99.90;;;;;;5042590;28;20040;-66
2023/03/02 06:39:20;;;;;;;55.53;20.08;;;2.00;99.90;;;;;;5049096;28;20036;-66
2023/03/02 06:41:46;;;;;;;50.42;18.85;;;1.90;99.90;;;;;;5048485;28;20037;-66
2023/03/02 06:44:13;;;;;;;56.72;18.92;;;1.80;99.90;;;;;;5049373;28;20063;-65
2023/03/02 06:46:39;;;;;;;49.28;20.67;;;1.80;99.90;;;;;;5049092;28;20037;-66
2023/03/02 06:49:05;;;;;;;49.67;19.30;;;1.80;99.90;;;;;;5047235;28;20043;-66
2023/03/02 06:51:31;;;;;;;61.50;20.95;;;1.80;99.90;;;;;;5046926;28;20448;-66
2023/03/02 06:53:57;;;;;;;52.53;19.70;;;1.80;99.90;;;;;;5050559;28;20118;-66
2023/03/02 06:56:22;;;;;;;63.47;19.85;;;1.80;99.90;;;;;;5050221;28;20128;-66
2023/03/02 06:58:48;;;;;;;59.17;20.50;;;1.90;99.90;;;;;;5041625;28;20405;-66
2023/03/02 07:01:14;;;;;;;44.65;18.75;;;1.80;99.90;;;;;;5051207;28;20051;-66
2023/03/02 07:03:39;;;;;;;52.20;20.70;;;1.80;99.90;;;;;;5051001;28;20117;-66
2023/03/02 07:06:05;;;;;;;49.80;19.02;;;1.90;99.90;;;;;;5050025;28;20448;-66
2023/03/02 07:08:31;;;;;;;63.17;21.33;;;1.90;99.90;;;;;;5050785;28;20512;-66
2023/03/02 07:10:57;;;;;;;55.53;19.80;;;2.00;99.90;;;;;;5050864;28;20466;-66
2023/03/02 07:13:23;;;;;;;52.83;20.17;;;2.00;99.90;;;;;;5050438;28;20504;-66
2023/03/02 07:15:48;;;;;;;46.42;18.08;;;2.00;99.90;;;;;;5049357;28;20045;-66
2023/03/02 07:18:14;;;;;;;50.65;18.88;;;2.00;99.90;;;;;;5050343;28;20066;-66
2023/03/02 07:20:42;;;;;;;50.22;17.98;;;2.00;99.90;;;;;;5050485;28;20052;-66
2023/03/02 07:23:07;;;;;;;45.63;18.42;;;1.90;99.90;;;;;;5050566;28;20041;-66
2023/03/02 07:25:34;;;;;;;41.22;17.35;;;2.00;99.90;;;;;;5049778;28;20033;-66
2023/03/02 07:28:00;;;;;;;49.83;19.23;;;1.90;99.90;;;;;;5050529;28;20041;-66
2023/03/02 07:30:25;;;;;;;40.47;17.83;;;2.00;99.90;;;;;;5050216;28;20571;-66
2023/03/02 07:32:51;;;;;;;51.78;18.80;;;2.00;99.90;;;;;;5049237;28;20044;-66
2023/03/02 07:35:17;;;;;;;42.80;17.90;;;1.90;99.90;;;;;;5049357;28;20049;-66
2023/03/02 07:37:43;;;;;;;40.58;17.00;;;1.80;99.90;;;;;;5050025;28;20043;-66
2023/03/02 07:40:11;;;;;;;43.55;18.38;;;1.80;99.90;;;;;;5050226;28;20049;-66
2023/03/02 07:42:37;;;;;;;36.95;16.27;;;1.80;99.90;;;;;;5050097;28;20540;-66
2023/03/02 07:45:04;;;;;;;42.25;18.83;;;1.80;99.90;;;;;;5049293;28;20041;-66
2023/03/02 07:47:30;;;;;;;40.40;17.55;;;1.90;99.90;;;;;;5050134;28;20037;-66
2023/03/02 07:49:55;;;;;;;44.47;18.33;;;2.00;99.90;;;;;;5049368;28;20055;-66
2023/03/02 07:52:21;;;;;;;47.67;18.45;;;2.10;99.90;;;;;;5049008;28;20045;-66
2023/03/02 07:54:47;;;;;;;47.53;19.20;;;2.10;99.90;;;;;;5048102;28;20037;-66
2023/03/02 07:57:15;;;;;;;57.78;20.05;;;2.10;99.90;;;;;;5049735;28;20118;-66
2023/03/02 07:59:41;;;;;;;45.35;18.80;;;2.20;99.90;;;;;;5048957;28;20458;-66
2023/03/02 08:02:11;;;;;;;39.38;19.67;;;2.20;99.90;;;;;;5048871;28;20529;-66
2023/03/02 08:04:36;;;;;;;41.38;17.70;;;2.10;99.90;;;;;;5049270;28;20052;-66
2023/03/02 08:07:02;;;;;;;39.13;16.58;;;2.20;99.90;;;;;;5049509;28;20037;-66
2023/03/02 08:09:27;;;;;;;47.33;18.55;;;2.20;99.90;;;;;;5049945;28;20075;-66
2023/03/02 08:11:53;;;;;;;50.47;19.77;;;2.20;99.90;;;;;;5049542;28;20555;-66
2023/03/02 08:14:19;;;;;;;46.92;18.23;;;2.20;99.90;;;;;;5049224;28;20056;-66
2023/03/02 08:16:44;;;;;;;44.75;18.83;;;2.20;99.90;;;;;;5049491;28;20512;-66
2023/03/02 08:19:10;;;;;;;46.22;18.15;;;2.20;99.90;;;;;;5049713;28;20049;-66
2023/03/02 08:21:35;;;;;;;44.03;18.40;;;2.20;99.90;;;;;;5049679;28;20073;-66
2023/03/02 08:24:02;;;;;;;41.20;17.65;;;2.20;99.90;;;;;;5049043;28;20098;-66
2023/03/02 08:26:27;;;;;;;44.58;19.15;;;2.30;99.90;;;;;;5047654;28;20037;-67
2023/03/02 08:28:53;;;;;;;44.58;18.73;;;2.30;99.90;;;;;;5047784;28;20040;-67
2023/03/02 08:31:18;;;;;;;46.22;20.50;;;2.30;99.90;;;;;;5048726;28;20048;-67
2023/03/02 08:33:44;;;;;;;44.33;17.77;;;2.30;99.90;;;;;;5048551;28;20048;-65
2023/03/02 08:36:13;;;;;;;45.25;18.90;;;2.30;99.90;;;;;;5049200;28;20076;-66
2023/03/02 08:38:39;;;;;;;45.88;19.45;;;2.40;99.90;;;;;;5049426;28;20048;-67
2023/03/02 08:41:07;;;;;;;43.40;18.35;;;2.40;99.90;;;;;;5048416;28;20046;-68
2023/03/02 08:43:33;;;;;;;47.17;18.35;;;2.40;99.90;;;;;;5049126;28;20048;-66
2023/03/02 08:45:59;;;;;;;41.05;17.95;;;2.40;99.90;;;;;;5045179;28;20068;-66
2023/03/02 08:48:26;;;;;;;36.88;17.15;;;2.40;99.90;;;;;;5059097;28;20040;-66
2023/03/02 08:50:56;;;;;;;39.25;17.13;;;2.40;99.90;;;;;;5056672;28;20047;-66
2023/03/02 08:53:22;;;;;;;41.42;18.35;;;2.40;99.90;;;;;;5043067;28;20041;-66
2023/03/02 08:55:48;;;;;;;39.10;16.15;;;2.30;99.90;;;;;;5047734;28;20114;-66
2023/03/02 08:58:13;;;;;;;39.55;16.90;;;2.30;99.90;;;;;;5047380;28;20044;-66
2023/03/02 09:00:39;;;;;;;34.65;16.38;;;2.20;99.90;;;;;;5046360;28;20050;-66
2023/03/02 09:03:04;;;;;;;40.10;16.67;;;2.20;99.90;;;;;;5047641;28;20532;-66
2023/03/02 09:05:30;;;;;;;34.00;17.33;;;2.30;99.90;;;;;;5047971;28;20165;-66
2023/03/02 09:07:56;;;;;;;34.17;16.08;;;2.30;99.90;;;;;;5049223;28;20041;-66
2023/03/02 09:10:21;;;;;;;36.70;16.70;;;2.30;99.90;;;;;;5049157;28;20060;-66
2023/03/02 09:12:47;;;;;;;37.90;16.45;;;2.30;99.90;;;;;;5048995;28;20072;-66
2023/03/02 09:15:13;;;;;;;38.20;16.88;;;2.40;99.90;;;;;;5048327;28;20394;-66
2023/03/02 09:17:38;;;;;;;37.65;17.05;;;2.50;99.90;;;;;;5047671;28;20048;-66
2023/03/02 09:20:05;;;;;;;47.08;16.83;;;2.50;99.90;;;;;;5047479;28;20528;-66
2023/03/02 09:22:30;;;;;;;38.50;16.67;;;2.50;99.90;;;;;;5048908;28;20163;-65
2023/03/02 09:24:56;;;;;;;39.95;16.02;;;2.50;99.90;;;;;;5048049;28;20120;-66
2023/03/02 09:27:21;;;;;;;36.30;16.48;;;2.40;99.90;;;;;;5048824;28;20044;-66
2023/03/02 09:29:47;;;;;;;41.72;17.25;;;2.50;99.90;;;;;;5048863;28;20485;-66
2023/03/02 09:32:14;;;;;;;36.70;16.40;;;2.50;99.90;;;;;;5047206;28;20036;-66
2023/03/02 09:34:40;;;;;;;42.65;17.45;;;2.50;99.90;;;;;;5048026;28;20041;-66
2023/03/02 09:37:05;;;;;;;38.00;16.05;;;2.50;99.90;;;;;;5048305;28;20249;-66
2023/03/02 09:39:31;;;;;;;38.72;16.50;;;2.60;99.90;;;;;;5047352;28;20043;-66
2023/03/02 09:42:09;;;;;;;39.55;16.13;;;2.60;99.90;;;;;;5047171;28;20043;-66
2023/03/02 09:44:43;;;;;;;36.95;17.75;;;2.60;99.90;;;;;;5047988;28;20036;-66
2023/03/02 09:47:19;;;;;;;36.95;16.80;;;2.70;99.90;;;;;;5048042;28;20045;-66
2023/03/02 09:50:06;;;;;;;35.90;15.85;;;2.70;99.90;;;;;;5048926;28;20053;-66
2023/03/02 09:52:43;;;;;;;36.22;16.58;;;2.70;99.90;;;;;;5047843;28;20037;-66
2023/03/02 09:55:11;;;;;;;38.90;17.83;;;2.70;99.90;;;;;;5046673;28;20552;-66
2023/03/02 09:57:38;;;;;;;37.22;16.25;;;2.80;99.90;;;;;;5051154;28;20041;-65
2023/03/02 10:00:14;;;;;;;35.25;15.73;;;2.80;99.90;;;;;;5051345;28;20070;-66
2023/03/02 10:02:47;;;;;;;39.60;17.50;;;2.80;99.90;;;;;;5052144;28;20033;-66
2023/03/02 10:05:26;;;;;;;36.53;16.13;;;2.80;99.90;;;;;;5049820;28;20044;-66
2023/03/02 10:07:52;;;;;;;29.92;14.35;;;2.90;99.90;;;;;;5051476;28;20037;-66
2023/03/02 10:10:33;;;;;;;34.90;15.88;;;2.80;99.90;;;;;;5050715;28;20082;-66
2023/03/02 10:13:25;;;;;;;36.58;16.30;;;2.80;99.90;;;;;;5051676;28;20075;-66
2023/03/02 10:15:56;;;;;;;34.50;16.00;;;2.90;99.90;;;;;;5051081;28;20041;-66
2023/03/02 10:18:47;;;;;;;33.40;16.13;;;3.00;99.90;;;;;;5051839;28;20363;-66
2023/03/02 10:21:33;;;;;;;37.63;16.40;;;3.00;99.90;;;;;;5051701;28;20041;-66
2023/03/02 10:24:23;;;;;;;34.80;16.42;;;3.00;99.90;;;;;;5050876;28;20893;-65
2023/03/02 10:26:53;;;;;;;36.30;16.40;;;3.00;99.90;;;;;;5051317;28;20049;-66
2023/03/02 10:29:19;;;;;;;36.80;15.93;;;3.20;99.90;;;;;;5030420;28;20607;-66
2023/03/02 10:31:45;;;;;;;43.55;17.35;;;3.20;99.90;;;;;;5049278;28;20041;-66
2023/03/02 10:34:12;;;;;;;36.92;17.23;;;3.30;99.90;;;;;;5049555;28;20052;-65
2023/03/02 10:36:40;;;;;;;39.08;17.70;;;3.20;99.90;;;;;;5050218;28;20041;-65
2023/03/02 10:39:11;;;;;;;36.60;16.90;;;3.20;99.90;;;;;;5051224;28;20091;-66
2023/03/02 10:41:43;;;;;;;34.53;15.90;;;3.20;99.90;;;;;;5045669;28;20493;-65
2023/03/02 10:44:19;;;;;;;43.20;18.40;;;3.20;99.90;;;;;;5038136;28;20486;-65
2023/03/02 10:46:45;;;;;;;35.92;17.33;;;3.10;99.90;;;;;;5038307;28;20044;-65
2023/03/02 10:49:35;;;;;;;40.38;17.30;;;3.20;99.90;;;;;;5035031;28;20144;-65
2023/03/02 10:52:16;;;;;;;35.17;16.17;;;3.30;99.90;;;;;;5031045;28;20049;-65
2023/03/02 10:54:42;;;;;;;37.28;17.17;;;3.40;99.90;;;;;;5030256;28;20122;-65
2023/03/02 10:57:28;;;;;;;38.92;18.15;;;3.40;99.90;;;;;;5030315;28;20142;-65
2023/03/02 11:00:03;;;;;;;40.75;17.50;;;3.40;99.90;;;;;;5030980;28;20393;-65
2023/03/02 11:02:32;;;;;;;38.97;17.23;;;3.50;99.90;;;;;;5030983;28;20033;-65
2023/03/02 11:05:16;;;;;;;37.30;16.73;;;3.50;99.90;;;;;;5029488;28;20064;-65
2023/03/02 11:07:53;;;;;;;37.95;17.75;;;3.50;99.90;;;;;;5029966;28;20128;-65
2023/03/02 11:10:22;;;;;;;38.60;18.02;;;3.50;99.90;;;;;;5030561;28;20056;-66
2023/03/02 11:12:50;;;;;;;41.28;18.30;;;3.50;99.90;;;;;;5030402;28;20572;-65
2023/03/02 11:15:34;;;;;;;39.10;17.77;;;3.50;99.90;;;;;;5029464;28;20041;-66
2023/03/02 11:18:17;;;;;;;39.60;18.35;;;3.50;99.90;;;;;;5030229;28;20120;-65
2023/03/02 11:20:47;;;;;;;43.35;19.65;;;3.60;99.90;;;;;;5030209;28;20041;-65
2023/03/02 11:23:31;;;;;;;41.45;17.70;;;3.60;99.90;;;;;;5030300;28;20077;-66
2023/03/02 11:26:03;;;;;;;36.70;17.60;;;3.60;99.90;;;;;;5029072;28;20041;-66
2023/03/02 11:28:41;;;;;;;41.97;17.85;;;3.60;99.90;;;;;;5030403;28;20050;-65
2023/03/02 11:31:15;;;;;;;42.55;17.98;;;3.60;99.90;;;;;;5039300;28;20642;-65
2023/03/02 11:34:10;;;;;;;39.58;17.63;;;3.70;99.90;;;;;;5048328;28;20045;-65
2023/03/02 11:36:45;;;;;;;41.20;18.92;;;3.70;99.90;;;;;;5038083;28;20594;-65
2023/03/02 11:39:16;;;;;;;48.15;19.42;;;3.80;99.90;;;;;;5038980;28;20091;-65
2023/03/02 11:41:42;;;;;;;42.78;18.45;;;3.70;99.90;;;;;;5038045;28;20071;-65
2023/03/02 11:44:19;;;;;;;39.90;17.13;;;3.80;99.90;;;;;;5039263;28;20025;-65
2023/03/02 11:46:48;;;;;;;39.83;16.77;;;3.80;99.90;;;;;;5038654;28;20044;-65
2023/03/02 11:49:36;;;;;;;43.25;19.40;;;3.80;99.90;;;;;;5039182;28;20144;-65
2023/03/02 11:52:02;;;;;;;38.47;17.15;;;3.90;99.90;;;;;;5029979;28;20080;-65
2023/03/02 11:54:39;;;;;;;38.88;17.50;;;3.90;99.90;;;;;;5029223;28;20069;-65
2023/03/02 11:57:09;;;;;;;38.75;17.45;;;4.00;99.90;;;;;;5028446;28;20081;-65
2023/03/02 11:59:35;;;;;;;37.00;17.40;;;4.00;99.90;;;;;;5030039;28;20047;-65
2023/03/02 12:02:01;;;;;;;41.40;17.88;;;4.00;99.90;;;;;;5029912;28;20100;-65
2023/03/02 12:04:31;;;;;;;43.88;18.17;;;4.00;99.90;;;;;;5029097;28;20045;-65
2023/03/02 12:06:59;;;;;;;45.15;20.55;;;4.10;99.90;;;;;;5028347;28;20485;-65
2023/03/02 12:09:34;;;;;;;40.85;18.85;;;4.10;99.90;;;;;;5028104;28;20048;-65
2023/03/02 12:12:29;;;;;;;41.72;18.10;;;4.20;99.90;;;;;;5029447;28;20056;-65
2023/03/02 12:14:55;;;;;;;38.88;19.25;;;4.20;99.90;;;;;;5029057;28;20146;-65
2023/03/02 12:17:31;;;;;;;37.03;16.02;;;4.30;99.90;;;;;;5029757;28;20684;-65
2023/03/02 12:20:08;;;;;;;34.00;16.85;;;4.30;99.90;;;;;;5028852;28;20387;-65
2023/03/02 12:22:35;;;;;;;33.28;16.10;;;4.20;99.90;;;;;;5029780;28;20131;-65
2023/03/02 12:25:22;;;;;;;35.97;16.40;;;4.20;99.90;;;;;;5029133;28;20419;-65
2023/03/02 12:27:50;;;;;;;35.58;15.88;;;4.20;99.90;;;;;;5029783;28;20041;-64
2023/03/02 12:30:22;;;;;;;38.85;16.40;;;4.20;99.90;;;;;;5029413;28;20084;-65
2023/03/02 12:33:03;;;;;;;37.47;17.48;;;4.30;99.90;;;;;;5011950;28;20041;-65
2023/03/02 12:35:32;;;;;;;35.83;16.33;;;4.30;99.90;;;;;;5027272;28;20119;-65
2023/03/02 12:38:15;;;;;;;40.65;17.95;;;4.30;99.90;;;;;;5029291;28;20498;-65
2023/03/02 12:41:05;;;;;;;38.63;16.58;;;4.40;99.90;;;;;;5029299;28;20073;-65
2023/03/02 12:43:55;;;;;;;40.42;17.63;;;4.50;99.90;;;;;;5029376;28;20033;-65
2023/03/02 12:46:32;;;;;;;35.80;16.85;;;4.50;99.90;;;;;;5029482;28;20111;-65